createdAt,value
2023-05-01T00:01:25.833Z,3.099
2023-05-01T00:02:24.214Z,3.299
2023-05-01T00:03:23.548Z,3.400
2023-05-01T00:04:23.809Z,3.5
2023-05-01T00:05:23.622Z,3.799
2023-05-01T00:06:23.260Z,4
2023-05-01T00:07:23.235Z,4.099
2023-05-01T00:08:23.624Z,3.799
2023-05-01T00:09:23.449Z,3.700
2023-05-01T00:10:23.505Z,4
2023-05-01T00:11:23.178Z,4.099
2023-05-01T00:12:23.456Z,4.400
2023-05-01T00:15:23.760Z,4.699
2023-05-01T00:17:23.297Z,4.800
2023-05-01T00:18:23.243Z,5.199
2023-05-01T00:19:23.802Z,5.599
2023-05-01T00:20:23.710Z,6
2023-05-01T00:21:23.337Z,6.099
2023-05-01T00:22:23.240Z,6.800
2023-05-01T00:23:24.086Z,6.5
2023-05-01T00:24:23.966Z,6.699
2023-05-01T00:25:23.888Z,6.199
2023-05-01T00:26:23.655Z,6.800
2023-05-01T00:27:23.456Z,6.699
2023-05-01T00:30:23.989Z,6.5
2023-05-01T00:31:23.772Z,6.199
2023-05-01T00:32:23.853Z,5.5
2023-05-01T00:33:23.692Z,5.699
2023-05-01T00:34:23.509Z,5.199
2023-05-01T00:35:23.397Z,5.099
2023-05-01T00:36:23.224Z,5
2023-05-01T00:37:23.688Z,4.800
2023-05-01T00:38:23.539Z,4.699
2023-05-01T00:39:23.496Z,4.5
2023-05-01T00:40:23.261Z,4.900
2023-05-01T00:41:23.869Z,4.699
2023-05-01T00:42:23.484Z,4.599
2023-05-01T00:43:23.176Z,4.800
2023-05-01T00:44:23.621Z,4.900
2023-05-01T00:45:23.696Z,5.099
2023-05-01T00:46:23.446Z,5
2023-05-01T00:48:23.365Z,5.099
2023-05-01T00:49:23.363Z,5.300
2023-05-01T00:50:23.694Z,5.5
2023-05-01T00:51:23.356Z,6.099
2023-05-01T00:52:23.290Z,6.400
2023-05-01T00:53:23.970Z,6.5
2023-05-01T00:54:28.456Z,6.800
2023-05-01T00:55:23.333Z,6.900
2023-05-01T00:56:30.978Z,7.300
2023-05-01T00:57:23.988Z,6.900
2023-05-01T00:58:23.757Z,7.300
2023-05-01T00:59:23.282Z,7.099
2023-05-01T01:00:24.887Z,7.5
2023-05-01T01:01:23.663Z,7.800
2023-05-01T01:02:23.681Z,8
2023-05-01T01:03:23.692Z,8.699
2023-05-01T01:04:23.578Z,8
2023-05-01T01:05:23.644Z,8.899
2023-05-01T01:06:23.630Z,8.600
2023-05-01T01:07:23.434Z,8.399
2023-05-01T01:08:37.387Z,8.5
2023-05-01T01:09:23.455Z,8.199
2023-05-01T01:10:37.937Z,8.300
2023-05-01T01:11:23.655Z,8.199
2023-05-01T01:12:23.314Z,8.399
2023-05-01T01:13:23.871Z,8.100
2023-05-01T01:14:23.493Z,8.300
2023-05-01T01:15:23.090Z,8.800
2023-05-01T01:16:23.706Z,8.300
2023-05-01T01:17:23.574Z,8.399
2023-05-01T01:18:23.726Z,8.5
2023-05-01T01:19:23.694Z,9.300
2023-05-01T01:20:24.113Z,8.899
2023-05-01T01:22:23.323Z,9.300
2023-05-01T01:23:23.534Z,9.199
2023-05-01T01:24:23.356Z,9.399
2023-05-01T01:25:24.009Z,9.5
2023-05-01T01:26:23.454Z,9.600
2023-05-01T01:27:23.138Z,9.300
2023-05-01T01:28:23.754Z,9.600
2023-05-01T01:30:23.830Z,9.399
2023-05-01T01:31:23.649Z,9.699
2023-05-01T01:33:23.278Z,9.399
2023-05-01T01:34:23.737Z,9.699
2023-05-01T01:35:23.857Z,9.899
2023-05-01T01:36:23.414Z,9.699
2023-05-01T01:37:23.178Z,10.30
2023-05-01T01:38:23.526Z,9.699
2023-05-01T01:39:23.289Z,10.19
2023-05-01T01:40:23.136Z,10.10
2023-05-01T01:42:23.348Z,10.60
2023-05-01T01:43:23.487Z,10.10
2023-05-01T01:45:27.990Z,10.30
2023-05-01T01:48:23.139Z,9.899
2023-05-01T01:49:23.639Z,9.699
2023-05-01T01:50:23.623Z,9.899
2023-05-01T01:51:23.450Z,10.10
2023-05-01T01:53:23.262Z,9.699
2023-05-01T01:54:23.345Z,10.39
2023-05-01T01:55:23.523Z,9.5
2023-05-01T01:56:23.305Z,9.899
2023-05-01T01:59:23.505Z,9.600
2023-05-01T02:00:24.671Z,9.300
2023-05-01T02:01:23.396Z,9.699
2023-05-01T02:02:23.441Z,9.5
2023-05-01T02:03:23.612Z,9.199
2023-05-01T02:04:23.581Z,9.300
2023-05-01T02:05:23.533Z,9.399
2023-05-01T02:06:23.387Z,9.100
2023-05-01T02:07:23.449Z,8.899
2023-05-01T02:08:23.364Z,8.699
2023-05-01T02:09:23.379Z,9
2023-05-01T02:10:23.519Z,8.399
2023-05-01T02:12:23.929Z,7.800
2023-05-01T02:13:23.465Z,8.199
2023-05-01T02:14:23.920Z,7.5
2023-05-01T02:15:23.702Z,7.599
2023-05-01T02:16:23.543Z,7.800
2023-05-01T02:17:23.579Z,8
2023-05-01T02:18:23.657Z,7.5
2023-05-01T02:19:23.507Z,7.300
2023-05-01T02:20:23.629Z,7.699
2023-05-01T02:21:23.514Z,7.199
2023-05-01T02:22:23.503Z,6.900
2023-05-01T02:23:23.546Z,7.199
2023-05-01T02:24:23.907Z,7
2023-05-01T02:25:24.442Z,7.099
2023-05-01T02:26:23.204Z,6.699
2023-05-01T02:27:23.407Z,7
2023-05-01T02:28:23.902Z,6
2023-05-01T02:29:24.353Z,6.099
2023-05-01T02:30:23.884Z,5.400
2023-05-01T02:31:23.760Z,5.099
2023-05-01T02:32:23.723Z,5.199
2023-05-01T02:34:24.039Z,5.099
2023-05-01T02:35:23.637Z,5
2023-05-01T02:36:23.519Z,5.099
2023-05-01T02:37:23.388Z,4.599
2023-05-01T02:38:23.141Z,5.199
2023-05-01T02:39:23.927Z,5.099
2023-05-01T02:40:23.885Z,5.199
2023-05-01T02:41:23.803Z,4.900
2023-05-01T02:43:23.375Z,4.800
2023-05-01T02:44:24.067Z,5
2023-05-01T02:45:24.011Z,4.800
2023-05-01T02:47:24.154Z,4.5
2023-05-01T02:50:24.025Z,4.400
2023-05-01T02:51:23.989Z,4.300
2023-05-01T02:53:23.903Z,4.699
2023-05-01T02:54:23.868Z,4.300
2023-05-01T02:56:23.456Z,4.400
2023-05-01T02:59:23.850Z,4.300
2023-05-01T03:00:25.169Z,3.900
2023-05-01T03:01:23.382Z,4.099
2023-05-01T03:02:23.707Z,4.199
2023-05-01T03:03:24.276Z,4.099
2023-05-01T03:04:23.678Z,4
2023-05-01T03:05:24.091Z,4.400
2023-05-01T03:06:23.629Z,4.300
2023-05-01T03:07:23.684Z,4.099
2023-05-01T03:08:23.757Z,4.400
2023-05-01T03:09:23.912Z,4.5
2023-05-01T03:10:24.008Z,4.300
2023-05-01T03:11:24.248Z,4.599
2023-05-01T03:12:23.269Z,4.5
2023-05-01T03:13:23.699Z,4.400
2023-05-01T03:14:23.572Z,4.699
2023-05-01T03:16:23.586Z,4.199
2023-05-01T03:17:23.742Z,4.099
2023-05-01T03:18:23.744Z,4.5
2023-05-01T03:19:23.673Z,4.400
2023-05-01T03:21:23.740Z,4.199
2023-05-01T03:22:24.115Z,4
2023-05-01T03:23:23.682Z,4.5
2023-05-01T03:24:24.072Z,4.099
2023-05-01T03:25:24.058Z,4.5
2023-05-01T03:26:24.079Z,4.199
2023-05-01T03:30:24.165Z,4
2023-05-01T03:31:23.401Z,4.199
2023-05-01T03:32:23.745Z,4
2023-05-01T03:33:24.061Z,4.300
2023-05-01T03:34:24.108Z,4.099
2023-05-01T03:35:23.688Z,4
2023-05-01T03:36:23.771Z,4.300
2023-05-01T03:37:23.877Z,4
2023-05-01T03:38:23.773Z,4.099
2023-05-01T03:39:23.606Z,4
2023-05-01T03:40:24.006Z,4.099
2023-05-01T03:41:23.914Z,3.700
2023-05-01T03:42:24.148Z,3.900
2023-05-01T03:43:23.578Z,4.300
2023-05-01T03:44:23.730Z,3.700
2023-05-01T03:45:24.292Z,3.900
2023-05-01T03:47:23.634Z,3.700
2023-05-01T03:48:23.958Z,3.900
2023-05-01T03:49:23.624Z,3.799
2023-05-01T03:50:23.778Z,3.700
2023-05-01T03:51:23.972Z,4
2023-05-01T03:52:23.998Z,3.799
2023-05-01T03:53:24.062Z,3.5
2023-05-01T03:55:24.092Z,3.900
2023-05-01T03:56:24.102Z,3.700
2023-05-01T03:57:23.933Z,3.5
2023-05-01T03:58:23.979Z,3.599
2023-05-01T04:00:24.472Z,3.299
2023-05-01T04:01:45.892Z,3.5
2023-05-01T04:02:23.743Z,3.599
2023-05-01T04:03:24.127Z,3.700
2023-05-01T04:05:24.365Z,3.299
2023-05-01T04:06:23.676Z,3.799
2023-05-01T04:07:23.897Z,3.5
2023-05-01T04:10:24.258Z,3.099
2023-05-01T04:12:23.560Z,3.599
2023-05-01T04:14:23.759Z,3.400
2023-05-01T04:16:24.127Z,3.299
2023-05-01T04:19:23.984Z,3.400
2023-05-01T04:20:24.420Z,3.5
2023-05-01T04:21:23.768Z,3.299
2023-05-01T04:22:23.961Z,3.5
2023-05-01T04:23:24.837Z,3.599
2023-05-01T04:24:23.399Z,3.099
2023-05-01T04:25:24.152Z,3.5
2023-05-01T04:26:23.466Z,3.400
2023-05-01T04:27:23.605Z,3.5
2023-05-01T04:29:24.042Z,3.200
2023-05-01T04:30:24.235Z,3.099
2023-05-01T04:31:23.818Z,3.299
2023-05-01T04:32:24.312Z,3.5
2023-05-01T04:33:23.781Z,3.299
2023-05-01T04:36:23.773Z,3.200
2023-05-01T04:40:23.793Z,3.400
2023-05-01T04:41:24.291Z,3.299
2023-05-01T04:42:23.807Z,2.900
2023-05-01T04:43:24.042Z,3.099
2023-05-01T04:45:24.446Z,3.200
2023-05-01T04:46:24.170Z,3.299
2023-05-01T04:49:23.772Z,3.200
2023-05-01T04:50:23.958Z,3.099
2023-05-01T04:51:23.484Z,3.200
2023-05-01T04:52:23.990Z,3.299
2023-05-01T04:53:23.561Z,3.099
2023-05-01T04:54:24.068Z,3.200
2023-05-01T04:56:24.084Z,3.099
2023-05-01T04:57:23.862Z,3.200
2023-05-01T05:00:24.795Z,3
2023-05-01T05:01:24.498Z,3.299
2023-05-01T05:02:24.239Z,3.400
2023-05-01T05:03:23.910Z,3
2023-05-01T05:04:23.854Z,3.299
2023-05-01T05:05:24.112Z,2.900
2023-05-01T05:06:23.632Z,3.099
2023-05-01T05:11:23.789Z,3.200
2023-05-01T05:12:24.026Z,3.299
2023-05-01T05:13:24.159Z,3.099
2023-05-01T05:14:23.521Z,3
2023-05-01T05:16:24.116Z,2.900
2023-05-01T05:17:23.871Z,3.099
2023-05-01T05:18:23.511Z,3.200
2023-05-01T05:19:23.968Z,2.900
2023-05-01T05:20:23.721Z,3.200
2023-05-01T05:21:24.114Z,2.900
2023-05-01T05:22:24.000Z,3.200
2023-05-01T05:23:24.166Z,3.299
2023-05-01T05:24:23.945Z,3.200
2023-05-01T05:25:24.118Z,3.299
2023-05-01T05:26:23.652Z,3.099
2023-05-01T05:27:23.888Z,2.900
2023-05-01T05:28:23.943Z,3.400
2023-05-01T05:29:24.067Z,3
2023-05-01T05:30:23.971Z,2.799
2023-05-01T05:31:24.129Z,3.200
2023-05-01T05:32:23.979Z,3.099
2023-05-01T05:33:23.883Z,2.799
2023-05-01T05:34:23.772Z,3
2023-05-01T05:36:24.346Z,3.099
2023-05-01T05:38:23.796Z,3
2023-05-01T05:39:24.208Z,2.799
2023-05-01T05:40:23.526Z,2.900
2023-05-01T05:41:23.780Z,3
2023-05-01T05:42:24.167Z,3.099
2023-05-01T05:43:24.970Z,2.900
2023-05-01T05:44:28.840Z,3
2023-05-01T05:45:24.312Z,3.099
2023-05-01T05:46:23.977Z,3.200
2023-05-01T05:47:23.746Z,3.299
2023-05-01T05:48:23.837Z,3.099
2023-05-01T05:51:24.036Z,3
2023-05-01T05:52:23.550Z,3.200
2023-05-01T05:57:24.710Z,3.099
2023-05-01T06:00:39.187Z,3.400
2023-05-01T06:01:24.414Z,3.200
2023-05-01T06:04:23.805Z,3.099
2023-05-01T06:05:24.473Z,3.299
2023-05-01T06:06:38.320Z,3.099
2023-05-01T06:07:23.626Z,3.200
2023-05-01T06:08:38.349Z,3.099
2023-05-01T06:10:24.062Z,3.400
2023-05-01T06:11:23.622Z,3.200
2023-05-01T06:13:23.868Z,3
2023-05-01T06:14:24.425Z,3.5
2023-05-01T06:15:24.207Z,3
2023-05-01T06:16:23.985Z,3.400
2023-05-01T06:17:23.855Z,3
2023-05-01T06:18:23.834Z,2.900
2023-05-01T06:19:24.027Z,3
2023-05-01T06:20:24.469Z,2.900
2023-05-01T06:21:24.332Z,3
2023-05-01T06:23:23.711Z,2.900
2023-05-01T06:24:23.922Z,2.599
2023-05-01T06:25:24.578Z,2.900
2023-05-01T06:26:24.446Z,3.400
2023-05-01T06:27:23.771Z,2.799
2023-05-01T06:28:24.396Z,3
2023-05-01T06:29:23.693Z,3.099
2023-05-01T06:30:23.639Z,2.900
2023-05-01T06:31:24.272Z,3
2023-05-01T06:32:24.241Z,3.099
2023-05-01T06:33:23.891Z,3
2023-05-01T06:34:23.628Z,2.900
2023-05-01T06:35:24.150Z,2.700
2023-05-01T06:36:23.712Z,2.799
2023-05-01T06:37:23.954Z,2.900
2023-05-01T06:38:26.298Z,3
2023-05-01T06:39:23.821Z,3.599
2023-05-01T06:40:24.460Z,3.400
2023-05-01T06:41:23.816Z,3.5
2023-05-01T06:42:24.205Z,3.400
2023-05-01T06:44:23.814Z,8.199
2023-05-01T06:45:23.851Z,5.199
2023-05-01T06:46:24.505Z,5.099
2023-05-01T06:47:24.344Z,5.599
2023-05-01T06:48:23.798Z,8.199
2023-05-01T06:49:24.494Z,6.699
2023-05-01T06:50:24.220Z,6
2023-05-01T06:51:23.741Z,5.099
2023-05-01T06:52:24.183Z,5.699
2023-05-01T06:53:23.875Z,6.099
2023-05-01T06:54:24.427Z,5.300
2023-05-01T06:55:24.307Z,4.599
2023-05-01T06:56:23.819Z,4.900
2023-05-01T06:57:23.699Z,4.599
2023-05-01T06:58:24.597Z,5.400
2023-05-01T06:59:24.404Z,4.5
2023-05-01T07:00:24.802Z,4.400
2023-05-01T07:01:23.734Z,4.900
2023-05-01T07:02:24.123Z,3.599
2023-05-01T07:03:24.063Z,5.099
2023-05-01T07:04:24.499Z,3.599
2023-05-01T07:05:24.220Z,2.900
2023-05-01T07:06:24.014Z,3.200
2023-05-01T07:07:23.573Z,3.5
2023-05-01T07:08:24.100Z,4.599
2023-05-01T07:09:23.724Z,4.099
2023-05-01T07:10:23.921Z,5.900
2023-05-01T07:11:23.727Z,4.900
2023-05-01T07:12:24.236Z,11.5
2023-05-01T07:13:24.100Z,10.89
2023-05-01T07:14:23.894Z,7.599
2023-05-01T07:15:24.700Z,6.900
2023-05-01T07:16:24.282Z,6.099
2023-05-01T07:17:24.477Z,5.300
2023-05-01T07:18:24.164Z,4.5
2023-05-01T07:19:24.402Z,4.099
2023-05-01T07:20:24.470Z,3.900
2023-05-01T07:21:24.307Z,3.200
2023-05-01T07:22:23.922Z,3.099
2023-05-01T07:23:23.922Z,3.200
2023-05-01T07:24:23.785Z,2.700
2023-05-01T07:25:23.777Z,2.799
2023-05-01T07:26:24.171Z,2.5
2023-05-01T07:27:24.150Z,2.299
2023-05-01T07:28:23.922Z,2.5
2023-05-01T07:30:24.474Z,2.200
2023-05-01T07:31:24.044Z,2.400
2023-05-01T07:32:23.712Z,2.200
2023-05-01T07:34:24.228Z,1.899
2023-05-01T07:35:23.867Z,2.400
2023-05-01T07:36:23.986Z,2.900
2023-05-01T07:37:23.713Z,3.200
2023-05-01T07:38:24.452Z,2.599
2023-05-01T07:40:24.206Z,2.400
2023-05-01T07:41:23.932Z,2.900
2023-05-01T07:42:24.041Z,2.400
2023-05-01T07:43:23.656Z,2.599
2023-05-01T07:44:24.090Z,2.400
2023-05-01T07:45:24.532Z,2.599
2023-05-01T07:46:23.789Z,2.900
2023-05-01T07:47:23.722Z,3.200
2023-05-01T07:48:24.244Z,3
2023-05-01T07:49:23.726Z,2.799
2023-05-01T07:51:24.271Z,3
2023-05-01T07:52:23.844Z,3.299
2023-05-01T07:53:23.753Z,3.599
2023-05-01T07:54:23.756Z,2.900
2023-05-01T07:55:24.407Z,3.700
2023-05-01T07:56:24.074Z,3.099
2023-05-01T07:57:24.156Z,2.700
2023-05-01T07:58:23.741Z,2.5
2023-05-01T08:00:25.233Z,2.400
2023-05-01T08:02:24.194Z,2.5
2023-05-01T08:03:24.443Z,2.400
2023-05-01T08:04:24.164Z,2.200
2023-05-01T08:05:24.181Z,2.5
2023-05-01T08:06:23.871Z,2.799
2023-05-01T08:07:23.609Z,2.299
2023-05-01T08:08:24.045Z,2.599
2023-05-01T08:10:23.863Z,2.5
2023-05-01T08:11:24.203Z,2.200
2023-05-01T08:12:23.701Z,2.299
2023-05-01T08:13:24.048Z,2.200
2023-05-01T08:15:31.862Z,2.099
2023-05-01T08:16:24.088Z,2.299
2023-05-01T08:17:23.667Z,2
2023-05-01T08:18:24.415Z,2.200
2023-05-01T08:20:24.081Z,2.099
2023-05-01T08:21:23.492Z,2.200
2023-05-01T08:22:24.084Z,1.899
2023-05-01T08:23:23.769Z,2
2023-05-01T08:24:24.547Z,2.200
2023-05-01T08:25:24.363Z,2
2023-05-01T08:26:23.914Z,2.200
2023-05-01T08:27:24.183Z,1.899
2023-05-01T08:28:23.781Z,2.099
2023-05-01T08:29:24.388Z,1.899
2023-05-01T08:30:24.068Z,1.799
2023-05-01T08:31:24.027Z,1.700
2023-05-01T08:32:23.816Z,2.099
2023-05-01T08:33:23.765Z,2
2023-05-01T08:34:24.169Z,1.899
2023-05-01T08:35:23.491Z,2.200
2023-05-01T08:36:23.884Z,2
2023-05-01T08:37:23.600Z,1.799
2023-05-01T08:38:24.132Z,2.200
2023-05-01T08:39:23.785Z,2.400
2023-05-01T08:40:24.259Z,2.299
2023-05-01T08:41:24.066Z,2.200
2023-05-01T08:42:23.914Z,2
2023-05-01T08:43:24.036Z,2.200
2023-05-01T08:44:23.909Z,1.899
2023-05-01T08:45:24.439Z,1.799
2023-05-01T08:46:24.005Z,1.899
2023-05-01T08:47:23.981Z,1.799
2023-05-01T08:48:24.166Z,1.899
2023-05-01T08:50:24.620Z,2
2023-05-01T08:51:24.349Z,1.899
2023-05-01T08:52:24.135Z,1.799
2023-05-01T08:53:23.888Z,2.099
2023-05-01T08:54:23.907Z,1.899
2023-05-01T08:56:24.100Z,2.200
2023-05-01T08:58:27.902Z,2.099
2023-05-01T09:02:27.793Z,2.200
2023-05-01T09:03:23.920Z,2
2023-05-01T09:04:24.148Z,2.099
2023-05-01T09:05:24.277Z,1.700
2023-05-01T09:06:24.274Z,1.899
2023-05-01T09:07:24.124Z,1.600
2023-05-01T09:08:24.148Z,1.700
2023-05-01T09:09:24.007Z,1.799
2023-05-01T09:11:24.358Z,2
2023-05-01T09:14:23.951Z,2.099
2023-05-01T09:15:24.207Z,2.299
2023-05-01T09:16:24.184Z,2.099
2023-05-01T09:17:23.937Z,2.299
2023-05-01T09:18:24.138Z,2.599
2023-05-01T09:19:24.063Z,2.299
2023-05-01T09:20:24.534Z,2.099
2023-05-01T09:21:24.274Z,2
2023-05-01T09:23:24.001Z,2.200
2023-05-01T09:25:24.347Z,2.099
2023-05-01T09:26:24.381Z,2.299
2023-05-01T09:28:24.233Z,2.200
2023-05-01T09:30:24.510Z,1.899
2023-05-01T09:31:24.431Z,2.400
2023-05-01T09:32:24.951Z,1.899
2023-05-01T09:33:24.568Z,2.200
2023-05-01T09:34:24.124Z,2.099
2023-05-01T09:35:24.288Z,2.400
2023-05-01T09:36:23.864Z,2.200
2023-05-01T09:37:24.133Z,2.099
2023-05-01T09:38:23.836Z,2
2023-05-01T09:39:23.581Z,2.099
2023-05-01T09:40:24.441Z,2.299
2023-05-01T09:41:24.036Z,2.200
2023-05-01T09:42:23.867Z,2.099
2023-05-01T09:46:24.069Z,2.299
2023-05-01T09:47:24.690Z,2.200
2023-05-01T09:48:23.855Z,2.400
2023-05-01T09:50:23.980Z,2.5
2023-05-01T09:51:24.096Z,2.299
2023-05-01T09:53:24.232Z,2.400
2023-05-01T09:54:24.277Z,2.200
2023-05-01T09:55:25.419Z,2.299
2023-05-01T09:56:23.780Z,2
2023-05-01T09:57:24.547Z,2.099
2023-05-01T10:00:24.853Z,1.899
2023-05-01T10:01:23.711Z,2.5
2023-05-01T10:02:24.296Z,2.299
2023-05-01T10:03:24.374Z,2.599
2023-05-01T10:04:23.983Z,2.099
2023-05-01T10:05:24.020Z,2.200
2023-05-01T10:06:24.168Z,2.5
2023-05-01T10:08:23.990Z,2.299
2023-05-01T10:09:23.872Z,2.200
2023-05-01T10:10:28.834Z,2.400
2023-05-01T10:11:23.789Z,2.200
2023-05-01T10:12:23.963Z,2.5
2023-05-01T10:13:24.485Z,2.200
2023-05-01T10:17:23.843Z,2.299
2023-05-01T10:20:24.462Z,2.400
2023-05-01T10:21:24.470Z,2.099
2023-05-01T10:23:24.033Z,2.200
2023-05-01T10:24:24.263Z,2.299
2023-05-01T10:25:24.336Z,2.400
2023-05-01T10:26:24.108Z,2.5
2023-05-01T10:27:23.966Z,2.299
2023-05-01T10:28:23.948Z,2.099
2023-05-01T10:29:23.790Z,2.299
2023-05-01T10:31:24.141Z,2.200
2023-05-01T10:32:29.028Z,2.400
2023-05-01T10:36:24.199Z,2
2023-05-01T10:37:24.124Z,2.200
2023-05-01T10:40:24.107Z,2.299
2023-05-01T10:41:24.025Z,2.400
2023-05-01T10:42:23.930Z,2.5
2023-05-01T10:43:23.717Z,2.599
2023-05-01T10:44:24.427Z,2.200
2023-05-01T10:45:24.238Z,2.400
2023-05-01T10:46:24.101Z,2.5
2023-05-01T10:47:24.019Z,2.400
2023-05-01T10:48:24.258Z,2.5
2023-05-01T10:49:24.288Z,2.099
2023-05-01T10:50:24.508Z,2.200
2023-05-01T10:52:23.953Z,2.299
2023-05-01T10:54:24.591Z,2.599
2023-05-01T10:55:24.462Z,2.5
2023-05-01T10:57:24.568Z,2.700
2023-05-01T10:59:24.056Z,2.200
2023-05-01T11:00:25.040Z,2.299
2023-05-01T11:01:24.403Z,2.400
2023-05-01T11:02:24.019Z,2
2023-05-01T11:03:24.530Z,2.099
2023-05-01T11:04:24.850Z,2
2023-05-01T11:05:38.021Z,2.299
2023-05-01T11:06:24.813Z,2.200
2023-05-01T11:08:24.089Z,2.099
2023-05-01T11:11:24.084Z,2.299
2023-05-01T11:12:24.005Z,2.200
2023-05-01T11:13:24.059Z,2.400
2023-05-01T11:14:24.018Z,1.899
2023-05-01T11:15:24.265Z,2.299
2023-05-01T11:16:24.521Z,2
2023-05-01T11:18:24.213Z,2.200
2023-05-01T11:19:24.862Z,1.899
2023-05-01T11:21:28.325Z,2.099
2023-05-01T11:24:23.908Z,2.200
2023-05-01T11:27:27.316Z,2.099
2023-05-01T11:28:24.534Z,2.200
2023-05-01T11:30:24.361Z,2.900
2023-05-01T11:33:24.070Z,2.5
2023-05-01T11:36:24.338Z,3
2023-05-01T11:37:24.084Z,2.900
2023-05-01T11:38:23.850Z,2.799
2023-05-01T11:39:23.841Z,2.5
2023-05-01T11:40:23.912Z,2.400
2023-05-01T11:42:24.493Z,2.799
2023-05-01T11:43:24.087Z,2.5
2023-05-01T11:44:24.555Z,2.200
2023-05-01T11:45:24.838Z,2.400
2023-05-01T11:46:24.656Z,2.299
2023-05-01T11:47:24.359Z,2.099
2023-05-01T11:48:24.503Z,2.400
2023-05-01T11:49:24.118Z,2.5
2023-05-01T11:50:24.088Z,2.400
2023-05-01T11:51:24.173Z,2.099
2023-05-01T11:52:24.572Z,2.299
2023-05-01T11:53:24.595Z,2.200
2023-05-01T11:54:24.967Z,2.299
2023-05-01T11:55:24.351Z,2.5
2023-05-01T11:57:23.962Z,2.099
2023-05-01T11:58:24.069Z,2.299
2023-05-01T11:59:24.009Z,2.400
2023-05-01T12:01:29.241Z,2.5
2023-05-01T12:02:25.084Z,2.200
2023-05-01T12:03:24.520Z,2.299
2023-05-01T12:04:24.391Z,2.599
2023-05-01T12:05:24.392Z,2.5
2023-05-01T12:06:24.515Z,2.599
2023-05-01T12:07:24.566Z,2.400
2023-05-01T12:08:24.930Z,2.299
2023-05-01T12:09:24.041Z,2.599
2023-05-01T12:10:24.210Z,2.799
2023-05-01T12:11:23.907Z,2.5
2023-05-01T12:12:24.017Z,2.599
2023-05-01T12:13:24.111Z,2.5
2023-05-01T12:14:23.890Z,2.400
2023-05-01T12:15:24.312Z,2.5
2023-05-01T12:16:24.143Z,2.400
2023-05-01T12:17:24.689Z,2.299
2023-05-01T12:18:24.272Z,2.400
2023-05-01T12:19:24.372Z,2.700
2023-05-01T12:20:24.760Z,2.5
2023-05-01T12:21:24.033Z,2.400
2023-05-01T12:22:24.167Z,2
2023-05-01T12:23:23.903Z,2.599
2023-05-01T12:25:24.079Z,2.5
2023-05-01T12:26:24.231Z,2.299
2023-05-01T12:27:24.224Z,2.200
2023-05-01T12:28:24.012Z,2.299
2023-05-01T12:29:23.900Z,2.400
2023-05-01T12:30:24.496Z,2.700
2023-05-01T12:31:24.093Z,2.299
2023-05-01T12:33:24.451Z,2.400
2023-05-01T12:34:24.589Z,2.200
2023-05-01T12:35:24.164Z,2.299
2023-05-01T12:36:24.450Z,2.400
2023-05-01T12:37:24.317Z,2.099
2023-05-01T12:38:24.544Z,2.200
2023-05-01T12:39:24.381Z,2
2023-05-01T12:40:24.594Z,2.200
2023-05-01T12:41:24.273Z,2.400
2023-05-01T12:42:24.417Z,2
2023-05-01T12:44:23.990Z,2.200
2023-05-01T12:48:24.234Z,2
2023-05-01T12:49:24.351Z,2.099
2023-05-01T12:50:24.434Z,1.700
2023-05-01T12:51:23.876Z,2.200
2023-05-01T12:52:24.025Z,2.099
2023-05-01T12:53:24.172Z,2.200
2023-05-01T12:54:24.178Z,2.099
2023-05-01T12:55:24.709Z,2.200
2023-05-01T12:56:24.054Z,2.400
2023-05-01T12:57:29.145Z,2.299
2023-05-01T12:58:24.268Z,2.099
2023-05-01T12:59:29.812Z,2.400
2023-05-01T13:00:24.733Z,2
2023-05-01T13:01:24.206Z,1.899
2023-05-01T13:02:24.813Z,2.099
2023-05-01T13:03:24.124Z,2
2023-05-01T13:05:24.702Z,2.099
2023-05-01T13:07:24.180Z,2
2023-05-01T13:08:24.238Z,2.299
2023-05-01T13:09:24.269Z,2.400
2023-05-01T13:10:24.344Z,2.200
2023-05-01T13:11:24.199Z,2.299
2023-05-01T13:12:24.122Z,2.5
2023-05-01T13:13:23.996Z,2.400
2023-05-01T13:14:23.986Z,2.799
2023-05-01T13:15:38.045Z,2.700
2023-05-01T13:17:24.148Z,3.200
2023-05-01T13:18:24.115Z,3
2023-05-01T13:19:24.352Z,2.900
2023-05-01T13:20:24.583Z,3.200
2023-05-01T13:21:23.933Z,2.900
2023-05-01T13:24:23.940Z,3.099
2023-05-01T13:25:24.001Z,2.799
2023-05-01T13:27:24.014Z,2.700
2023-05-01T13:28:24.014Z,2.200
2023-05-01T13:30:24.995Z,2.400
2023-05-01T13:31:42.991Z,2.299
2023-05-01T13:32:23.990Z,2.099
2023-05-01T13:33:23.834Z,1.899
2023-05-01T13:35:24.549Z,1.799
2023-05-01T13:38:23.988Z,2.200
2023-05-01T13:39:24.049Z,2.099
2023-05-01T13:40:24.267Z,2.5
2023-05-01T13:41:24.253Z,2.400
2023-05-01T13:43:24.603Z,2
2023-05-01T13:44:24.471Z,2.099
2023-05-01T13:45:24.475Z,2
2023-05-01T13:47:24.572Z,1.799
2023-05-01T13:48:24.113Z,2
2023-05-01T13:49:24.199Z,2.200
2023-05-01T13:50:24.511Z,2.400
2023-05-01T13:51:23.834Z,2.200
2023-05-01T13:53:24.491Z,2.099
2023-05-01T13:54:24.157Z,2.299
2023-05-01T13:55:24.560Z,2.200
2023-05-01T13:56:24.085Z,2.400
2023-05-01T13:57:24.257Z,2.200
2023-05-01T13:59:24.267Z,2.299
2023-05-01T14:00:25.286Z,2.599
2023-05-01T14:02:24.445Z,2.5
2023-05-01T14:03:24.521Z,2.299
2023-05-01T14:04:24.150Z,2.200
2023-05-01T14:05:24.534Z,2.400
2023-05-01T14:06:24.471Z,2.200
2023-05-01T14:08:24.502Z,2.400
2023-05-01T14:09:24.589Z,2.299
2023-05-01T14:10:24.640Z,2.099
2023-05-01T14:11:23.923Z,2
2023-05-01T14:12:24.214Z,2.299
2023-05-01T14:14:24.626Z,2.400
2023-05-01T14:15:24.699Z,2.299
2023-05-01T14:16:24.876Z,2.200
2023-05-01T14:17:24.044Z,2.299
2023-05-01T14:18:24.227Z,2.599
2023-05-01T14:19:24.637Z,3.200
2023-05-01T14:20:23.972Z,2.799
2023-05-01T14:21:24.203Z,2.700
2023-05-01T14:22:24.247Z,2.799
2023-05-01T14:23:24.143Z,2.900
2023-05-01T14:24:24.109Z,3
2023-05-01T14:25:24.445Z,2.799
2023-05-01T14:26:24.466Z,3
2023-05-01T14:28:24.141Z,2.900
2023-05-01T14:29:24.134Z,3.099
2023-05-01T14:30:24.819Z,3.200
2023-05-01T14:31:24.161Z,2.900
2023-05-01T14:32:24.204Z,3.099
2023-05-01T14:33:24.505Z,3.5
2023-05-01T14:34:25.263Z,2.900
2023-05-01T14:35:24.513Z,3.200
2023-05-01T14:36:24.154Z,3
2023-05-01T14:37:24.336Z,3.200
2023-05-01T14:38:24.598Z,3
2023-05-01T14:40:24.510Z,2.700
2023-05-01T14:41:24.387Z,2.900
2023-05-01T14:42:24.291Z,3
2023-05-01T14:43:24.504Z,2.700
2023-05-01T14:44:24.180Z,3
2023-05-01T14:45:24.722Z,2.5
2023-05-01T14:46:24.084Z,2.799
2023-05-01T14:47:24.598Z,3
2023-05-01T14:48:24.128Z,3.200
2023-05-01T14:49:24.591Z,3.099
2023-05-01T14:50:24.337Z,3
2023-05-01T14:51:24.530Z,2.799
2023-05-01T14:52:24.586Z,2.900
2023-05-01T14:53:24.018Z,3
2023-05-01T14:54:24.218Z,2.799
2023-05-01T14:55:24.541Z,3
2023-05-01T14:56:24.471Z,3.200
2023-05-01T14:57:24.555Z,3.099
2023-05-01T14:59:24.246Z,3
2023-05-01T15:00:25.736Z,2.900
2023-05-01T15:01:24.592Z,2.799
2023-05-01T15:02:24.646Z,3
2023-05-01T15:03:24.295Z,2.900
2023-05-01T15:04:24.637Z,3.099
2023-05-01T15:05:24.815Z,2.700
2023-05-01T15:06:24.286Z,3.099
2023-05-01T15:07:24.883Z,3.200
2023-05-01T15:08:24.125Z,3.099
2023-05-01T15:09:24.682Z,3.299
2023-05-01T15:10:24.522Z,3
2023-05-01T15:12:24.589Z,3.400
2023-05-01T15:13:24.347Z,3.200
2023-05-01T15:14:24.669Z,3.799
2023-05-01T15:15:24.339Z,3.299
2023-05-01T15:16:24.566Z,3.5
2023-05-01T15:17:24.444Z,3.400
2023-05-01T15:18:24.314Z,3.299
2023-05-01T15:19:24.505Z,3.599
2023-05-01T15:20:24.751Z,3.799
2023-05-01T15:21:24.195Z,3.599
2023-05-01T15:22:24.473Z,3.900
2023-05-01T15:23:24.366Z,3.700
2023-05-01T15:24:24.360Z,3.900
2023-05-01T15:25:24.973Z,4
2023-05-01T15:26:24.369Z,4.099
2023-05-01T15:27:24.706Z,3.900
2023-05-01T15:28:24.165Z,4.199
2023-05-01T15:29:24.239Z,4.5
2023-05-01T15:30:24.885Z,4.400
2023-05-01T15:31:24.613Z,3.900
2023-05-01T15:32:24.235Z,4
2023-05-01T15:33:24.284Z,3.900
2023-05-01T15:34:32.634Z,3.599
2023-05-01T15:35:24.748Z,3.400
2023-05-01T15:36:32.513Z,3.5
2023-05-01T15:37:24.848Z,3.099
2023-05-01T15:38:24.539Z,3.200
2023-05-01T15:40:24.670Z,3.099
2023-05-01T15:41:24.482Z,3.400
2023-05-01T15:42:24.503Z,3.299
2023-05-01T15:43:24.658Z,3.099
2023-05-01T15:44:24.693Z,3.200
2023-05-01T15:45:24.326Z,3.299
2023-05-01T15:46:24.653Z,3.099
2023-05-01T15:47:24.640Z,2.799
2023-05-01T15:48:24.265Z,3
2023-05-01T15:49:24.728Z,2.799
2023-05-01T15:50:38.939Z,3.099
2023-05-01T15:51:24.370Z,3.200
2023-05-01T15:52:24.725Z,3.599
2023-05-01T15:53:24.506Z,3.799
2023-05-01T15:54:43.985Z,3.700
2023-05-01T15:56:24.484Z,4.400